UAL2250 KDEN-KSAN
Flight info
| Callsign | UAL2250 |
|---|---|
| Flight time | 2h 8m |
| Altitude | 34000 |
| Route | BAYLR6 TEHRU PLNDL Q86 TTRUE LUCKI1 |
| Aircraft | B738/M-SDE2E3FGHIRWXY/LB1 |
Departure
| Time | 2026-04-22 23:34 |
|---|---|
| Airport | Denver International Airport (KDEN) |
Arrival
| Time | 2026-04-23 01:42 |
|---|---|
| Airport | San Diego International Airport (KSAN) |
| Time | Latitude | Longitude | Altitude | Speed | Heading |
|---|---|---|---|---|---|
| 2026-04-22 23:07 | 39.85336 | -104.67555 | 5382 ft | 0 kts | 28° |
| 2026-04-22 23:17 | 39.85331 | -104.67558 | 5385 ft | 2 kts | 28° |
| 2026-04-22 23:17 | 39.85314 | -104.67571 | 5384 ft | 3 kts | 29° |
| 2026-04-22 23:18 | 39.85298 | -104.67584 | 5383 ft | 3 kts | 44° |
| 2026-04-22 23:18 | 39.85286 | -104.67604 | 5385 ft | 3 kts | 67° |
| 2026-04-22 23:18 | 39.85281 | -104.67628 | 5385 ft | 3 kts | 86° |
| 2026-04-22 23:18 | 39.85280 | -104.67642 | 5385 ft | 1 kts | 90° |
| 2026-04-22 23:19 | 39.85280 | -104.67644 | 5385 ft | 0 kts | 90° |
| 2026-04-22 23:23 | 39.85280 | -104.67637 | 5385 ft | 5 kts | 90° |
| 2026-04-22 23:24 | 39.85281 | -104.67543 | 5385 ft | 16 kts | 88° |
| 2026-04-22 23:24 | 39.85277 | -104.67359 | 5386 ft | 24 kts | 89° |
| 2026-04-22 23:24 | 39.85273 | -104.67115 | 5386 ft | 30 kts | 90° |
| 2026-04-22 23:24 | 39.85277 | -104.66818 | 5386 ft | 36 kts | 89° |
| 2026-04-22 23:25 | 39.85281 | -104.66567 | 5386 ft | 20 kts | 67° |
| 2026-04-22 23:25 | 39.85294 | -104.66391 | 5391 ft | 20 kts | 91° |
| 2026-04-22 23:25 | 39.85338 | -104.66243 | 5391 ft | 19 kts | 11° |
| 2026-04-22 23:25 | 39.85475 | -104.66232 | 5393 ft | 21 kts | 3° |
| 2026-04-22 23:26 | 39.85625 | -104.66242 | 5392 ft | 23 kts | 357° |
| 2026-04-22 23:26 | 39.85784 | -104.66234 | 5389 ft | 23 kts | 359° |
| 2026-04-22 23:26 | 39.85957 | -104.66234 | 5390 ft | 26 kts | 0° |
| 2026-04-22 23:26 | 39.86150 | -104.66232 | 5386 ft | 29 kts | 0° |
| 2026-04-22 23:27 | 39.86364 | -104.66231 | 5381 ft | 32 kts | 0° |
| 2026-04-22 23:27 | 39.86497 | -104.66168 | 5380 ft | 21 kts | 78° |
| 2026-04-22 23:27 | 39.86498 | -104.65975 | 5373 ft | 21 kts | 91° |
| 2026-04-22 23:27 | 39.86496 | -104.65787 | 5367 ft | 20 kts | 91° |
| 2026-04-22 23:28 | 39.86494 | -104.65604 | 5364 ft | 20 kts | 91° |
| 2026-04-22 23:28 | 39.86492 | -104.65427 | 5359 ft | 19 kts | 90° |
| 2026-04-22 23:28 | 39.86491 | -104.65254 | 5356 ft | 20 kts | 90° |
| 2026-04-22 23:28 | 39.86490 | -104.65048 | 5353 ft | 24 kts | 90° |
| 2026-04-22 23:29 | 39.86490 | -104.64957 | 5352 ft | 0 kts | 89° |
| 2026-04-22 23:29 | 39.86490 | -104.64949 | 5352 ft | 4 kts | 90° |
| 2026-04-22 23:29 | 39.86488 | -104.64801 | 5350 ft | 21 kts | 91° |
| 2026-04-22 23:29 | 39.86485 | -104.64587 | 5346 ft | 26 kts | 91° |
| 2026-04-22 23:30 | 39.86484 | -104.64329 | 5336 ft | 31 kts | 91° |
| 2026-04-22 23:30 | 39.86452 | -104.64150 | 5337 ft | 10 kts | 161° |
| 2026-04-22 23:30 | 39.86396 | -104.64136 | 5338 ft | 0 kts | 178° |
| 2026-04-22 23:30 | 39.86316 | -104.64134 | 5338 ft | 34 kts | 179° |
| 2026-04-22 23:31 | 39.86109 | -104.64146 | 5342 ft | 21 kts | 200° |
| 2026-04-22 23:31 | 39.86082 | -104.64272 | 5344 ft | 13 kts | 279° |
| 2026-04-22 23:31 | 39.86134 | -104.64351 | 5345 ft | 13 kts | 349° |
| 2026-04-22 23:31 | 39.86225 | -104.64351 | 5339 ft | 15 kts | 1° |
| 2026-04-22 23:32 | 39.86379 | -104.64347 | 5337 ft | 27 kts | 1° |
| 2026-04-22 23:32 | 39.86483 | -104.64275 | 5335 ft | 17 kts | 75° |
| 2026-04-22 23:32 | 39.86435 | -104.64134 | 5337 ft | 18 kts | 150° |
| 2026-04-22 23:32 | 39.86381 | -104.64134 | 5335 ft | 1 kts | 181° |
| 2026-04-22 23:33 | 39.86380 | -104.64134 | 5335 ft | 0 kts | 180° |
| 2026-04-22 23:33 | 39.86261 | -104.64133 | 5337 ft | 47 kts | 179° |
| 2026-04-22 23:33 | 39.85722 | -104.64145 | 5351 ft | 107 kts | 181° |
| 2026-04-22 23:34 | 39.84779 | -104.64162 | 5365 ft | 161 kts | 181° |
| 2026-04-22 23:34 | 39.83560 | -104.64169 | 5807 ft | 181 kts | 184° |
| 2026-04-22 23:34 | 39.82270 | -104.64184 | 6459 ft | 196 kts | 187° |
| 2026-04-22 23:34 | 39.80903 | -104.64608 | 6650 ft | 210 kts | 211° |
| 2026-04-22 23:35 | 39.79715 | -104.65812 | 6834 ft | 224 kts | 227° |
| 2026-04-22 23:35 | 39.78631 | -104.67305 | 7368 ft | 227 kts | 229° |
| 2026-04-22 23:35 | 39.77542 | -104.68841 | 7816 ft | 233 kts | 228° |
| 2026-04-22 23:35 | 39.76573 | -104.70552 | 8301 ft | 240 kts | 244° |
| 2026-04-22 23:36 | 39.76020 | -104.72699 | 8570 ft | 261 kts | 259° |
| 2026-04-22 23:36 | 39.75988 | -104.75057 | 9180 ft | 269 kts | 272° |
| 2026-04-22 23:36 | 39.76220 | -104.77480 | 9687 ft | 273 kts | 275° |
| 2026-04-22 23:36 | 39.76493 | -104.79925 | 9921 ft | 273 kts | 275° |
| 2026-04-22 23:37 | 39.76759 | -104.82373 | 10007 ft | 278 kts | 275° |
| 2026-04-22 23:37 | 39.77019 | -104.84889 | 10016 ft | 282 kts | 275° |
| 2026-04-22 23:37 | 39.77275 | -104.87422 | 9996 ft | 282 kts | 274° |
| 2026-04-22 23:37 | 39.77488 | -104.89939 | 9970 ft | 278 kts | 267° |
| 2026-04-22 23:38 | 39.77186 | -104.92395 | 10083 ft | 280 kts | 255° |
| 2026-04-22 23:38 | 39.76624 | -104.94922 | 10240 ft | 301 kts | 252° |
| 2026-04-22 23:38 | 39.75986 | -104.97636 | 10337 ft | 325 kts | 252° |
| 2026-04-22 23:38 | 39.75324 | -105.00533 | 10480 ft | 344 kts | 252° |
| 2026-04-22 23:39 | 39.74607 | -105.03554 | 10806 ft | 354 kts | 249° |
| 2026-04-22 23:39 | 39.73693 | -105.06523 | 11432 ft | 355 kts | 246° |
| 2026-04-22 23:39 | 39.72699 | -105.09473 | 12017 ft | 358 kts | 245° |
| 2026-04-22 23:39 | 39.71686 | -105.12443 | 12616 ft | 361 kts | 246° |
| 2026-04-22 23:40 | 39.70683 | -105.15422 | 13377 ft | 359 kts | 246° |
| 2026-04-22 23:40 | 39.69692 | -105.18404 | 13938 ft | 361 kts | 246° |
| 2026-04-22 23:40 | 39.68700 | -105.21417 | 14447 ft | 364 kts | 246° |
| 2026-04-22 23:40 | 39.67704 | -105.24451 | 15020 ft | 366 kts | 246° |
| 2026-04-22 23:41 | 39.66716 | -105.27456 | 15578 ft | 367 kts | 246° |
| 2026-04-22 23:41 | 39.65717 | -105.30493 | 16308 ft | 365 kts | 246° |
| 2026-04-22 23:41 | 39.64716 | -105.33529 | 16869 ft | 367 kts | 246° |
| 2026-04-22 23:41 | 39.63698 | -105.36612 | 17400 ft | 369 kts | 246° |
| 2026-04-22 23:42 | 39.62692 | -105.39658 | 17883 ft | 372 kts | 246° |
| 2026-04-22 23:42 | 39.61676 | -105.42742 | 18412 ft | 372 kts | 246° |
| 2026-04-22 23:42 | 39.60652 | -105.45842 | 18848 ft | 375 kts | 246° |
| 2026-04-22 23:42 | 39.59619 | -105.48967 | 19298 ft | 378 kts | 246° |
| 2026-04-22 23:43 | 39.58577 | -105.52106 | 19786 ft | 380 kts | 246° |
| 2026-04-22 23:43 | 39.57527 | -105.55253 | 20245 ft | 381 kts | 246° |
| 2026-04-22 23:43 | 39.56470 | -105.58421 | 20648 ft | 384 kts | 246° |
| 2026-04-22 23:43 | 39.55406 | -105.61614 | 21069 ft | 387 kts | 246° |
| 2026-04-22 23:44 | 39.54426 | -105.64812 | 21596 ft | 387 kts | 249° |
| 2026-04-22 23:44 | 39.53510 | -105.68102 | 22089 ft | 389 kts | 250° |
| 2026-04-22 23:44 | 39.52615 | -105.71420 | 22493 ft | 391 kts | 250° |
| 2026-04-22 23:44 | 39.51719 | -105.74749 | 22916 ft | 393 kts | 250° |
| 2026-04-22 23:45 | 39.50811 | -105.78097 | 23270 ft | 395 kts | 250° |
| 2026-04-22 23:45 | 39.49890 | -105.81454 | 23608 ft | 397 kts | 250° |
| 2026-04-22 23:45 | 39.48971 | -105.84775 | 23965 ft | 397 kts | 249° |
| 2026-04-22 23:45 | 39.48038 | -105.88132 | 24369 ft | 396 kts | 250° |
| 2026-04-22 23:46 | 39.47101 | -105.91497 | 24710 ft | 398 kts | 249° |
| 2026-04-22 23:46 | 39.46157 | -105.94877 | 25038 ft | 399 kts | 249° |
| 2026-04-22 23:46 | 39.45211 | -105.98258 | 25379 ft | 401 kts | 249° |
| 2026-04-22 23:46 | 39.44262 | -106.01651 | 25798 ft | 401 kts | 249° |
| 2026-04-22 23:47 | 39.43309 | -106.05051 | 26190 ft | 401 kts | 249° |
| 2026-04-22 23:47 | 39.42358 | -106.08443 | 26542 ft | 401 kts | 249° |
| 2026-04-22 23:47 | 39.41402 | -106.11849 | 26871 ft | 402 kts | 249° |
| 2026-04-22 23:47 | 39.40443 | -106.15262 | 27158 ft | 404 kts | 249° |
| 2026-04-22 23:48 | 39.39478 | -106.18687 | 27453 ft | 406 kts | 249° |
| 2026-04-22 23:48 | 39.38523 | -106.22065 | 27842 ft | 405 kts | 249° |
| 2026-04-22 23:48 | 39.37562 | -106.25462 | 28315 ft | 401 kts | 249° |
| 2026-04-22 23:48 | 39.36606 | -106.28836 | 28819 ft | 398 kts | 249° |
| 2026-04-22 23:49 | 39.35656 | -106.32187 | 29295 ft | 395 kts | 249° |
| 2026-04-22 23:49 | 39.34713 | -106.35509 | 29752 ft | 393 kts | 249° |
| 2026-04-22 23:49 | 39.33774 | -106.38816 | 30189 ft | 390 kts | 250° |
| 2026-04-22 23:49 | 39.32842 | -106.42093 | 30541 ft | 388 kts | 249° |
| 2026-04-22 23:50 | 39.31910 | -106.45367 | 30761 ft | 389 kts | 249° |
| 2026-04-22 23:50 | 39.30977 | -106.48638 | 31052 ft | 388 kts | 250° |
| 2026-04-22 23:50 | 39.30361 | -106.50797 | 31304 ft | 385 kts | 250° |
| 2026-04-22 23:50 | 39.29126 | -106.55120 | 31795 ft | 382 kts | 250° |
| 2026-04-22 23:51 | 39.28516 | -106.57253 | 31987 ft | 381 kts | 250° |
| 2026-04-22 23:51 | 39.27300 | -106.61503 | 32281 ft | 380 kts | 250° |
| 2026-04-22 23:51 | 39.26385 | -106.64694 | 32635 ft | 377 kts | 250° |
| 2026-04-22 23:51 | 39.25478 | -106.67852 | 33011 ft | 375 kts | 250° |
| 2026-04-22 23:52 | 39.24545 | -106.71005 | 33205 ft | 378 kts | 246° |
| 2026-04-22 23:52 | 39.23727 | -106.72996 | 33319 ft | 380 kts | 239° |
| 2026-04-22 23:52 | 39.22160 | -106.75749 | 33620 ft | 380 kts | 235° |
| 2026-04-22 23:52 | 39.20524 | -106.78415 | 33994 ft | 378 kts | 235° |
| 2026-04-22 23:53 | 39.18879 | -106.81055 | 34226 ft | 378 kts | 234° |
| 2026-04-22 23:53 | 39.17228 | -106.83705 | 34322 ft | 379 kts | 234° |
| 2026-04-22 23:53 | 39.13931 | -106.89022 | 34559 ft | 380 kts | 234° |
| 2026-04-22 23:54 | 39.12287 | -106.91689 | 34762 ft | 380 kts | 235° |
| 2026-04-22 23:54 | 39.10647 | -106.94354 | 34870 ft | 381 kts | 235° |
| 2026-04-22 23:54 | 39.09003 | -106.97028 | 35091 ft | 379 kts | 235° |
| 2026-04-22 23:54 | 39.07370 | -106.99682 | 35257 ft | 377 kts | 235° |
| 2026-04-22 23:55 | 39.05194 | -107.03220 | 35474 ft | 377 kts | 235° |
| 2026-04-22 23:55 | 39.04111 | -107.04980 | 35546 ft | 378 kts | 235° |
| 2026-04-22 23:55 | 39.00834 | -107.10302 | 35705 ft | 381 kts | 235° |
| 2026-04-22 23:56 | 38.99189 | -107.12970 | 35827 ft | 381 kts | 235° |
| 2026-04-22 23:56 | 38.97558 | -107.15613 | 35938 ft | 382 kts | 235° |
| 2026-04-22 23:56 | 38.94274 | -107.20925 | 36020 ft | 377 kts | 235° |
| 2026-04-22 23:57 | 38.91061 | -107.26109 | 36027 ft | 371 kts | 235° |
| 2026-04-22 23:57 | 38.87820 | -107.31344 | 36056 ft | 377 kts | 235° |
| 2026-04-22 23:58 | 38.84524 | -107.36654 | 36083 ft | 382 kts | 234° |
| 2026-04-22 23:58 | 38.81203 | -107.41996 | 36064 ft | 387 kts | 235° |
| 2026-04-22 23:59 | 38.77885 | -107.47319 | 36032 ft | 382 kts | 235° |
| 2026-04-22 23:59 | 38.74601 | -107.52604 | 36098 ft | 378 kts | 235° |
| 2026-04-23 00:00 | 38.69668 | -107.60489 | 36113 ft | 377 kts | 235° |
| 2026-04-23 00:01 | 38.66383 | -107.65729 | 36147 ft | 377 kts | 235° |
| 2026-04-23 00:01 | 38.63122 | -107.70912 | 36178 ft | 376 kts | 235° |
| 2026-04-23 00:02 | 38.59809 | -107.76176 | 35938 ft | 384 kts | 234° |
| 2026-04-23 00:02 | 38.56446 | -107.81518 | 35905 ft | 385 kts | 234° |
| 2026-04-23 00:03 | 38.53111 | -107.86799 | 35908 ft | 380 kts | 234° |
| 2026-04-23 00:03 | 38.49798 | -107.92072 | 35917 ft | 382 kts | 235° |
| 2026-04-23 00:04 | 38.46450 | -107.97376 | 35913 ft | 385 kts | 235° |
| 2026-04-23 00:04 | 38.43075 | -108.02693 | 35877 ft | 386 kts | 235° |
| 2026-04-23 00:05 | 38.39712 | -108.07982 | 35869 ft | 387 kts | 234° |
| 2026-04-23 00:05 | 38.36319 | -108.13313 | 35841 ft | 387 kts | 234° |
| 2026-04-23 00:06 | 38.32932 | -108.18628 | 35805 ft | 386 kts | 234° |
| 2026-04-23 00:06 | 38.29554 | -108.23922 | 35789 ft | 384 kts | 234° |
| 2026-04-23 00:07 | 38.26180 | -108.29199 | 35773 ft | 383 kts | 234° |
| 2026-04-23 00:07 | 38.22817 | -108.34443 | 35777 ft | 381 kts | 234° |
| 2026-04-23 00:08 | 38.19465 | -108.39660 | 35784 ft | 380 kts | 234° |
| 2026-04-23 00:08 | 38.16143 | -108.44829 | 35784 ft | 379 kts | 234° |
| 2026-04-23 00:09 | 38.12842 | -108.50034 | 35779 ft | 377 kts | 235° |
| 2026-04-23 00:09 | 38.09575 | -108.55244 | 35781 ft | 376 kts | 235° |
| 2026-04-23 00:10 | 38.06338 | -108.60458 | 35783 ft | 376 kts | 236° |
| 2026-04-23 00:10 | 38.03104 | -108.65612 | 35788 ft | 376 kts | 235° |
| 2026-04-23 00:11 | 37.99834 | -108.70789 | 35793 ft | 376 kts | 235° |
| 2026-04-23 00:11 | 37.96549 | -108.75978 | 35788 ft | 377 kts | 235° |
| 2026-04-23 00:12 | 37.93260 | -108.81167 | 35799 ft | 378 kts | 234° |
| 2026-04-23 00:12 | 37.89919 | -108.86371 | 35805 ft | 382 kts | 234° |
| 2026-04-23 00:13 | 37.86579 | -108.91612 | 35795 ft | 382 kts | 234° |
| 2026-04-23 00:13 | 37.83241 | -108.96859 | 35797 ft | 382 kts | 234° |
| 2026-04-23 00:14 | 37.79908 | -109.02105 | 35801 ft | 382 kts | 235° |
| 2026-04-23 00:14 | 37.76592 | -109.07294 | 35800 ft | 382 kts | 234° |
| 2026-04-23 00:15 | 37.73252 | -109.12510 | 35815 ft | 381 kts | 235° |
| 2026-04-23 00:15 | 37.69914 | -109.17717 | 35844 ft | 381 kts | 234° |
| 2026-04-23 00:16 | 37.66573 | -109.22924 | 35884 ft | 381 kts | 234° |
| 2026-04-23 00:16 | 37.63225 | -109.28135 | 35900 ft | 382 kts | 234° |
| 2026-04-23 00:17 | 37.59877 | -109.33336 | 35921 ft | 382 kts | 234° |
| 2026-04-23 00:17 | 37.56544 | -109.38505 | 35940 ft | 382 kts | 234° |
| 2026-04-23 00:18 | 37.53184 | -109.43708 | 35948 ft | 383 kts | 234° |
| 2026-04-23 00:18 | 37.49818 | -109.48913 | 35941 ft | 383 kts | 234° |
| 2026-04-23 00:19 | 37.46448 | -109.54116 | 35924 ft | 383 kts | 234° |
| 2026-04-23 00:19 | 37.43079 | -109.59308 | 35887 ft | 383 kts | 234° |
| 2026-04-23 00:20 | 37.39703 | -109.64504 | 35849 ft | 383 kts | 234° |
| 2026-04-23 00:20 | 37.36323 | -109.69697 | 35821 ft | 383 kts | 234° |
| 2026-04-23 00:21 | 37.32963 | -109.74852 | 35785 ft | 384 kts | 234° |
| 2026-04-23 00:21 | 37.29578 | -109.80036 | 35756 ft | 384 kts | 234° |
| 2026-04-23 00:22 | 37.26191 | -109.85216 | 35759 ft | 384 kts | 234° |
| 2026-04-23 00:22 | 37.22801 | -109.90401 | 35755 ft | 383 kts | 235° |
| 2026-04-23 00:23 | 37.19417 | -109.95567 | 35756 ft | 383 kts | 234° |
| 2026-04-23 00:23 | 37.16041 | -110.00702 | 35750 ft | 381 kts | 235° |
| 2026-04-23 00:24 | 37.12693 | -110.05794 | 35764 ft | 381 kts | 235° |
| 2026-04-23 00:24 | 37.09335 | -110.10891 | 35762 ft | 382 kts | 235° |
| 2026-04-23 00:25 | 37.05942 | -110.16034 | 35760 ft | 384 kts | 235° |
| 2026-04-23 00:25 | 37.02528 | -110.21198 | 35761 ft | 385 kts | 235° |
| 2026-04-23 00:26 | 36.99105 | -110.26369 | 35754 ft | 386 kts | 235° |
| 2026-04-23 00:26 | 36.95694 | -110.31513 | 35773 ft | 387 kts | 235° |
| 2026-04-23 00:27 | 36.92251 | -110.36697 | 35765 ft | 388 kts | 235° |
| 2026-04-23 00:27 | 36.88801 | -110.41886 | 35788 ft | 386 kts | 235° |
| 2026-04-23 00:28 | 36.85364 | -110.47048 | 35786 ft | 386 kts | 235° |
| 2026-04-23 00:28 | 36.81906 | -110.52219 | 35746 ft | 388 kts | 234° |
| 2026-04-23 00:29 | 36.78438 | -110.57398 | 35790 ft | 390 kts | 235° |
| 2026-04-23 00:29 | 36.74982 | -110.62559 | 35783 ft | 392 kts | 235° |
| 2026-04-23 00:30 | 36.71499 | -110.67756 | 35791 ft | 392 kts | 234° |
| 2026-04-23 00:30 | 36.68005 | -110.72957 | 35791 ft | 391 kts | 235° |
| 2026-04-23 00:31 | 36.64518 | -110.78142 | 35784 ft | 390 kts | 235° |
| 2026-04-23 00:31 | 36.61036 | -110.83312 | 35770 ft | 388 kts | 235° |
| 2026-04-23 00:32 | 36.57574 | -110.88443 | 35784 ft | 386 kts | 235° |
| 2026-04-23 00:32 | 36.54119 | -110.93559 | 35774 ft | 385 kts | 235° |
| 2026-04-23 00:33 | 36.50680 | -110.98642 | 35797 ft | 383 kts | 235° |
| 2026-04-23 00:33 | 36.47251 | -111.03703 | 35787 ft | 383 kts | 235° |
| 2026-04-23 00:34 | 36.43839 | -111.08731 | 35791 ft | 383 kts | 235° |
| 2026-04-23 00:34 | 36.40400 | -111.13792 | 35796 ft | 384 kts | 235° |
| 2026-04-23 00:35 | 36.36949 | -111.18864 | 35792 ft | 385 kts | 235° |
| 2026-04-23 00:35 | 36.33515 | -111.23901 | 35799 ft | 385 kts | 235° |
| 2026-04-23 00:36 | 36.30043 | -111.28988 | 35799 ft | 387 kts | 235° |
| 2026-04-23 00:36 | 36.26553 | -111.34092 | 35802 ft | 389 kts | 235° |
| 2026-04-23 00:37 | 36.23050 | -111.39208 | 35803 ft | 390 kts | 235° |
| 2026-04-23 00:37 | 36.19537 | -111.44328 | 35803 ft | 390 kts | 235° |
| 2026-04-23 00:38 | 36.16017 | -111.49453 | 35802 ft | 391 kts | 235° |
| 2026-04-23 00:38 | 36.12485 | -111.54588 | 35807 ft | 392 kts | 235° |
| 2026-04-23 00:39 | 36.08968 | -111.59695 | 35814 ft | 392 kts | 235° |
| 2026-04-23 00:39 | 36.05424 | -111.64830 | 35826 ft | 393 kts | 235° |
| 2026-04-23 00:40 | 36.01872 | -111.69973 | 35659 ft | 394 kts | 235° |
| 2026-04-23 00:40 | 36.00098 | -111.72536 | 35804 ft | 391 kts | 235° |
| 2026-04-23 00:40 | 35.98326 | -111.75094 | 35855 ft | 392 kts | 235° |
| 2026-04-23 00:41 | 35.94808 | -111.80170 | 35930 ft | 394 kts | 235° |
| 2026-04-23 00:41 | 35.91223 | -111.85336 | 35972 ft | 397 kts | 235° |
| 2026-04-23 00:42 | 35.88231 | -111.89640 | 35998 ft | 397 kts | 235° |
| 2026-04-23 00:42 | 35.84623 | -111.94822 | 36010 ft | 397 kts | 235° |
| 2026-04-23 00:43 | 35.81031 | -111.99974 | 36021 ft | 396 kts | 235° |
| 2026-04-23 00:43 | 35.77473 | -112.05073 | 36021 ft | 394 kts | 235° |
| 2026-04-23 00:44 | 35.73925 | -112.10184 | 36009 ft | 390 kts | 237° |
| 2026-04-23 00:44 | 35.71084 | -112.15763 | 36000 ft | 382 kts | 245° |
| 2026-04-23 00:45 | 35.68446 | -112.21432 | 35977 ft | 381 kts | 244° |
| 2026-04-23 00:45 | 35.65801 | -112.27060 | 35953 ft | 379 kts | 244° |
| 2026-04-23 00:46 | 35.63161 | -112.32662 | 35941 ft | 378 kts | 244° |
| 2026-04-23 00:46 | 35.60520 | -112.38253 | 35943 ft | 378 kts | 244° |
| 2026-04-23 00:47 | 35.57915 | -112.43818 | 35937 ft | 379 kts | 245° |
| 2026-04-23 00:47 | 35.55293 | -112.49441 | 35941 ft | 380 kts | 245° |
| 2026-04-23 00:48 | 35.52674 | -112.55048 | 35931 ft | 382 kts | 245° |
| 2026-04-23 00:48 | 35.50023 | -112.60709 | 35924 ft | 383 kts | 245° |
| 2026-04-23 00:49 | 35.47358 | -112.66388 | 35914 ft | 384 kts | 244° |
| 2026-04-23 00:49 | 35.44703 | -112.72037 | 35926 ft | 385 kts | 245° |
| 2026-04-23 00:50 | 35.42020 | -112.77736 | 35930 ft | 386 kts | 245° |
| 2026-04-23 00:50 | 35.39352 | -112.83451 | 35931 ft | 386 kts | 245° |
| 2026-04-23 00:51 | 35.36657 | -112.89156 | 35922 ft | 386 kts | 245° |
| 2026-04-23 00:51 | 35.33962 | -112.94840 | 35925 ft | 385 kts | 245° |
| 2026-04-23 00:52 | 35.31276 | -113.00500 | 35922 ft | 384 kts | 245° |
| 2026-04-23 00:52 | 35.28608 | -113.06114 | 35926 ft | 383 kts | 245° |
| 2026-04-23 00:53 | 35.25920 | -113.11764 | 35922 ft | 383 kts | 245° |
| 2026-04-23 00:53 | 35.23348 | -113.17167 | 35924 ft | 383 kts | 245° |
| 2026-04-23 00:54 | 35.20674 | -113.22789 | 35917 ft | 382 kts | 244° |
| 2026-04-23 00:54 | 35.17987 | -113.28397 | 35918 ft | 382 kts | 244° |
| 2026-04-23 00:55 | 35.15313 | -113.34012 | 35916 ft | 382 kts | 244° |
| 2026-04-23 00:55 | 35.12642 | -113.39616 | 35918 ft | 382 kts | 244° |
| 2026-04-23 00:56 | 35.09963 | -113.45220 | 35923 ft | 382 kts | 244° |
| 2026-04-23 00:56 | 35.07304 | -113.50774 | 35924 ft | 381 kts | 244° |
| 2026-04-23 00:57 | 35.04629 | -113.56353 | 35903 ft | 381 kts | 245° |
| 2026-04-23 00:57 | 35.01945 | -113.61937 | 35912 ft | 381 kts | 244° |
| 2026-04-23 00:58 | 34.99289 | -113.67539 | 35905 ft | 382 kts | 245° |
| 2026-04-23 00:58 | 34.96600 | -113.73138 | 35904 ft | 382 kts | 245° |
| 2026-04-23 00:59 | 34.93899 | -113.78718 | 35922 ft | 381 kts | 245° |
| 2026-04-23 00:59 | 34.91193 | -113.84281 | 35893 ft | 381 kts | 245° |
| 2026-04-23 01:00 | 34.88491 | -113.89843 | 35896 ft | 381 kts | 245° |
| 2026-04-23 01:00 | 34.85753 | -113.95389 | 35914 ft | 383 kts | 243° |
| 2026-04-23 01:01 | 34.82913 | -114.00861 | 35903 ft | 385 kts | 243° |
| 2026-04-23 01:01 | 34.80084 | -114.06329 | 35903 ft | 385 kts | 243° |
| 2026-04-23 01:02 | 34.77230 | -114.11846 | 35905 ft | 385 kts | 243° |
| 2026-04-23 01:02 | 34.74375 | -114.17363 | 35907 ft | 385 kts | 243° |
| 2026-04-23 01:03 | 34.71523 | -114.22865 | 35914 ft | 384 kts | 243° |
| 2026-04-23 01:03 | 34.68687 | -114.28331 | 35917 ft | 384 kts | 243° |
| 2026-04-23 01:04 | 34.65867 | -114.33759 | 35920 ft | 383 kts | 243° |
| 2026-04-23 01:04 | 34.61256 | -114.41699 | 35940 ft | 387 kts | 235° |
| 2026-04-23 01:05 | 34.57655 | -114.46566 | 35933 ft | 387 kts | 234° |
| 2026-04-23 01:05 | 34.54068 | -114.51415 | 35914 ft | 386 kts | 235° |
| 2026-04-23 01:06 | 34.50517 | -114.56280 | 35912 ft | 385 kts | 235° |
| 2026-04-23 01:06 | 34.47003 | -114.61115 | 35911 ft | 384 kts | 235° |
| 2026-04-23 01:07 | 34.43465 | -114.65981 | 35909 ft | 385 kts | 235° |
| 2026-04-23 01:07 | 34.39925 | -114.70843 | 35908 ft | 385 kts | 235° |
| 2026-04-23 01:08 | 34.36377 | -114.75707 | 35907 ft | 385 kts | 235° |
| 2026-04-23 01:08 | 34.32829 | -114.80561 | 35931 ft | 384 kts | 235° |
| 2026-04-23 01:09 | 34.29279 | -114.85411 | 35919 ft | 385 kts | 235° |
| 2026-04-23 01:09 | 34.25734 | -114.90251 | 35917 ft | 387 kts | 235° |
| 2026-04-23 01:10 | 34.22155 | -114.95130 | 35924 ft | 388 kts | 235° |
| 2026-04-23 01:10 | 34.18567 | -115.00016 | 35927 ft | 389 kts | 235° |
| 2026-04-23 01:11 | 34.15059 | -115.04981 | 35924 ft | 389 kts | 236° |
| 2026-04-23 01:11 | 34.11434 | -115.09840 | 35928 ft | 389 kts | 235° |
| 2026-04-23 01:12 | 34.07807 | -115.14685 | 35936 ft | 388 kts | 236° |
| 2026-04-23 01:12 | 34.04204 | -115.19533 | 35943 ft | 388 kts | 235° |
| 2026-04-23 01:13 | 34.00609 | -115.24377 | 35935 ft | 388 kts | 234° |
| 2026-04-23 01:13 | 33.97014 | -115.29191 | 35930 ft | 388 kts | 235° |
| 2026-04-23 01:14 | 33.93439 | -115.34052 | 35934 ft | 387 kts | 235° |
| 2026-04-23 01:14 | 33.89859 | -115.38914 | 35630 ft | 393 kts | 235° |
| 2026-04-23 01:15 | 33.88036 | -115.41387 | 35110 ft | 394 kts | 235° |
| 2026-04-23 01:15 | 33.86214 | -115.43849 | 34616 ft | 391 kts | 235° |
| 2026-04-23 01:15 | 33.84408 | -115.46285 | 34007 ft | 391 kts | 235° |
| 2026-04-23 01:15 | 33.82605 | -115.48716 | 33521 ft | 386 kts | 235° |
| 2026-04-23 01:16 | 33.80822 | -115.51119 | 33016 ft | 383 kts | 235° |
| 2026-04-23 01:16 | 33.79078 | -115.53468 | 32561 ft | 379 kts | 234° |
| 2026-04-23 01:16 | 33.77332 | -115.55821 | 32107 ft | 375 kts | 234° |
| 2026-04-23 01:16 | 33.75601 | -115.58154 | 31658 ft | 372 kts | 234° |
| 2026-04-23 01:17 | 33.73881 | -115.60469 | 31216 ft | 370 kts | 234° |
| 2026-04-23 01:17 | 33.72173 | -115.62765 | 30772 ft | 367 kts | 234° |
| 2026-04-23 01:17 | 33.70472 | -115.65049 | 30308 ft | 365 kts | 233° |
| 2026-04-23 01:17 | 33.68749 | -115.67341 | 29549 ft | 371 kts | 233° |
| 2026-04-23 01:18 | 33.67020 | -115.69626 | 28983 ft | 369 kts | 233° |
| 2026-04-23 01:18 | 33.65300 | -115.71894 | 28536 ft | 365 kts | 233° |
| 2026-04-23 01:18 | 33.63599 | -115.74138 | 28107 ft | 361 kts | 233° |
| 2026-04-23 01:18 | 33.61926 | -115.76368 | 27663 ft | 357 kts | 236° |
| 2026-04-23 01:19 | 33.60442 | -115.78722 | 27217 ft | 351 kts | 240° |
| 2026-04-23 01:19 | 33.59081 | -115.81132 | 26793 ft | 347 kts | 241° |
| 2026-04-23 01:19 | 33.57745 | -115.83544 | 26384 ft | 345 kts | 241° |
| 2026-04-23 01:19 | 33.56408 | -115.85924 | 25965 ft | 342 kts | 240° |
| 2026-04-23 01:20 | 33.55085 | -115.88242 | 25570 ft | 340 kts | 240° |
| 2026-04-23 01:20 | 33.53747 | -115.90566 | 25168 ft | 338 kts | 239° |
| 2026-04-23 01:20 | 33.52410 | -115.92877 | 24773 ft | 336 kts | 239° |
| 2026-04-23 01:20 | 33.51083 | -115.95170 | 24371 ft | 334 kts | 239° |
| 2026-04-23 01:21 | 33.49759 | -115.97453 | 23974 ft | 332 kts | 239° |
| 2026-04-23 01:21 | 33.48447 | -115.99717 | 23582 ft | 331 kts | 239° |
| 2026-04-23 01:21 | 33.47137 | -116.01980 | 23107 ft | 329 kts | 240° |
| 2026-04-23 01:21 | 33.45837 | -116.04226 | 22688 ft | 326 kts | 239° |
| 2026-04-23 01:22 | 33.44547 | -116.06450 | 22304 ft | 323 kts | 239° |
| 2026-04-23 01:22 | 33.43268 | -116.08647 | 21902 ft | 320 kts | 239° |
| 2026-04-23 01:22 | 33.41998 | -116.10828 | 21508 ft | 318 kts | 239° |
| 2026-04-23 01:22 | 33.40740 | -116.12991 | 21145 ft | 315 kts | 239° |
| 2026-04-23 01:23 | 33.39492 | -116.15138 | 20743 ft | 313 kts | 239° |
| 2026-04-23 01:23 | 33.38259 | -116.17259 | 20399 ft | 312 kts | 239° |
| 2026-04-23 01:23 | 33.37011 | -116.19404 | 19990 ft | 313 kts | 240° |
| 2026-04-23 01:23 | 33.35764 | -116.21551 | 19619 ft | 313 kts | 239° |
| 2026-04-23 01:24 | 33.34513 | -116.23663 | 19227 ft | 319 kts | 236° |
| 2026-04-23 01:24 | 33.32860 | -116.25507 | 18816 ft | 334 kts | 219° |
| 2026-04-23 01:24 | 33.30794 | -116.26892 | 18289 ft | 344 kts | 213° |
| 2026-04-23 01:24 | 33.28627 | -116.28158 | 17754 ft | 347 kts | 212° |
| 2026-04-23 01:25 | 33.26448 | -116.29392 | 17283 ft | 346 kts | 211° |
| 2026-04-23 01:25 | 33.24279 | -116.30615 | 16965 ft | 340 kts | 212° |
| 2026-04-23 01:25 | 33.22142 | -116.31833 | 16411 ft | 341 kts | 212° |
| 2026-04-23 01:25 | 33.20035 | -116.33049 | 15973 ft | 339 kts | 212° |
| 2026-04-23 01:26 | 33.17912 | -116.34283 | 15543 ft | 337 kts | 212° |
| 2026-04-23 01:26 | 33.16519 | -116.35095 | 15248 ft | 337 kts | 212° |
| 2026-04-23 01:26 | 33.13709 | -116.36736 | 14676 ft | 335 kts | 212° |
| 2026-04-23 01:26 | 33.12325 | -116.37545 | 14376 ft | 334 kts | 212° |
| 2026-04-23 01:27 | 33.09543 | -116.39171 | 13816 ft | 332 kts | 212° |
| 2026-04-23 01:27 | 33.08171 | -116.39973 | 13506 ft | 332 kts | 211° |
| 2026-04-23 01:27 | 33.05423 | -116.41578 | 12906 ft | 331 kts | 211° |
| 2026-04-23 01:27 | 33.04020 | -116.42396 | 12609 ft | 330 kts | 211° |
| 2026-04-23 01:28 | 33.01987 | -116.43580 | 12202 ft | 329 kts | 211° |
| 2026-04-23 01:28 | 32.99996 | -116.44877 | 11820 ft | 322 kts | 220° |
| 2026-04-23 01:28 | 32.98280 | -116.46532 | 11534 ft | 313 kts | 225° |
| 2026-04-23 01:28 | 32.96657 | -116.48222 | 11291 ft | 306 kts | 226° |
| 2026-04-23 01:29 | 32.95065 | -116.49888 | 11016 ft | 304 kts | 225° |
| 2026-04-23 01:29 | 32.93477 | -116.51529 | 10750 ft | 301 kts | 225° |
| 2026-04-23 01:29 | 32.91894 | -116.53144 | 10468 ft | 298 kts | 224° |
| 2026-04-23 01:29 | 32.90329 | -116.54730 | 10214 ft | 294 kts | 224° |
| 2026-04-23 01:30 | 32.88776 | -116.56302 | 9935 ft | 291 kts | 224° |
| 2026-04-23 01:30 | 32.88264 | -116.56819 | 9916 ft | 289 kts | 224° |
| 2026-04-23 01:30 | 32.87586 | -116.57500 | 9918 ft | 282 kts | 224° |
| 2026-04-23 01:31 | 32.87241 | -116.57847 | 9908 ft | 279 kts | 224° |
| 2026-04-23 01:31 | 32.85784 | -116.59310 | 9710 ft | 273 kts | 224° |
| 2026-04-23 01:31 | 32.84316 | -116.60789 | 9227 ft | 273 kts | 224° |
| 2026-04-23 01:31 | 32.82871 | -116.62248 | 8954 ft | 267 kts | 224° |
| 2026-04-23 01:32 | 32.81494 | -116.63634 | 8827 ft | 252 kts | 224° |
| 2026-04-23 01:32 | 32.80186 | -116.64946 | 8767 ft | 241 kts | 224° |
| 2026-04-23 01:32 | 32.78945 | -116.66192 | 8710 ft | 232 kts | 224° |
| 2026-04-23 01:32 | 32.77728 | -116.67423 | 8606 ft | 220 kts | 227° |
| 2026-04-23 01:33 | 32.76869 | -116.68802 | 8527 ft | 205 kts | 245° |
| 2026-04-23 01:33 | 32.76192 | -116.70288 | 8318 ft | 203 kts | 245° |
| 2026-04-23 01:33 | 32.75507 | -116.71755 | 8055 ft | 204 kts | 244° |
| 2026-04-23 01:33 | 32.74817 | -116.73221 | 7852 ft | 202 kts | 244° |
| 2026-04-23 01:34 | 32.74128 | -116.74675 | 7601 ft | 203 kts | 244° |
| 2026-04-23 01:34 | 32.73436 | -116.76129 | 7397 ft | 200 kts | 244° |
| 2026-04-23 01:34 | 32.72763 | -116.77549 | 7186 ft | 195 kts | 244° |
| 2026-04-23 01:34 | 32.72102 | -116.78943 | 6867 ft | 195 kts | 244° |
| 2026-04-23 01:35 | 32.71433 | -116.80358 | 6581 ft | 195 kts | 244° |
| 2026-04-23 01:35 | 32.70773 | -116.81758 | 6281 ft | 193 kts | 247° |
| 2026-04-23 01:35 | 32.70260 | -116.83230 | 5886 ft | 194 kts | 253° |
| 2026-04-23 01:35 | 32.69802 | -116.84732 | 5560 ft | 194 kts | 253° |
| 2026-04-23 01:36 | 32.69346 | -116.86223 | 5308 ft | 190 kts | 253° |
| 2026-04-23 01:36 | 32.68917 | -116.87648 | 5053 ft | 181 kts | 257° |
| 2026-04-23 01:36 | 32.68879 | -116.89090 | 4861 ft | 171 kts | 278° |
| 2026-04-23 01:36 | 32.68974 | -116.90510 | 4630 ft | 174 kts | 276° |
| 2026-04-23 01:37 | 32.69054 | -116.91958 | 4428 ft | 177 kts | 276° |
| 2026-04-23 01:37 | 32.69132 | -116.93409 | 4184 ft | 174 kts | 276° |
| 2026-04-23 01:37 | 32.69216 | -116.94841 | 4027 ft | 176 kts | 275° |
| 2026-04-23 01:37 | 32.69298 | -116.96325 | 3804 ft | 183 kts | 275° |
| 2026-04-23 01:38 | 32.69378 | -116.97832 | 3593 ft | 182 kts | 276° |
| 2026-04-23 01:38 | 32.69461 | -116.99328 | 3349 ft | 180 kts | 276° |
| 2026-04-23 01:38 | 32.69542 | -117.00791 | 3122 ft | 175 kts | 276° |
| 2026-04-23 01:38 | 32.69619 | -117.02214 | 2904 ft | 169 kts | 276° |
| 2026-04-23 01:39 | 32.69693 | -117.03572 | 2719 ft | 160 kts | 277° |
| 2026-04-23 01:39 | 32.69890 | -117.04820 | 2520 ft | 150 kts | 289° |
| 2026-04-23 01:39 | 32.70180 | -117.05997 | 2369 ft | 148 kts | 289° |
| 2026-04-23 01:39 | 32.70470 | -117.07165 | 2174 ft | 152 kts | 289° |
| 2026-04-23 01:40 | 32.70768 | -117.08374 | 1939 ft | 154 kts | 289° |
| 2026-04-23 01:40 | 32.71068 | -117.09590 | 1715 ft | 155 kts | 288° |
| 2026-04-23 01:40 | 32.71373 | -117.10830 | 1475 ft | 157 kts | 287° |
| 2026-04-23 01:40 | 32.71673 | -117.12072 | 1232 ft | 155 kts | 287° |
| 2026-04-23 01:41 | 32.71970 | -117.13294 | 1001 ft | 150 kts | 289° |
| 2026-04-23 01:41 | 32.72256 | -117.14471 | 765 ft | 146 kts | 289° |
| 2026-04-23 01:41 | 32.72531 | -117.15615 | 531 ft | 139 kts | 292° |
| 2026-04-23 01:41 | 32.72799 | -117.16785 | 334 ft | 150 kts | 289° |
| 2026-04-23 01:42 | 32.73100 | -117.17926 | 83 ft | 142 kts | 285° |
| 2026-04-23 01:42 | 32.73336 | -117.18942 | 26 ft | 85 kts | 287° |
| 2026-04-23 01:42 | 32.73448 | -117.19375 | 28 ft | 37 kts | 288° |
| 2026-04-23 01:42 | 32.73428 | -117.19480 | 27 ft | 5 kts | 231° |
| 2026-04-23 01:43 | 32.73401 | -117.19520 | 26 ft | 0 kts | 231° |
| 2026-04-23 01:43 | 32.73398 | -117.19524 | 26 ft | 5 kts | 230° |
| 2026-04-23 01:43 | 32.73383 | -117.19602 | 25 ft | 13 kts | 271° |
| 2026-04-23 01:44 | 32.73389 | -117.19665 | 25 ft | 5 kts | 280° |
| 2026-04-23 01:44 | 32.73402 | -117.19737 | 24 ft | 12 kts | 286° |
| 2026-04-23 01:44 | 32.73430 | -117.19854 | 27 ft | 14 kts | 285° |
| 2026-04-23 01:44 | 32.73486 | -117.19963 | 28 ft | 17 kts | 305° |
| 2026-04-23 01:45 | 32.73526 | -117.20090 | 29 ft | 16 kts | 288° |
| 2026-04-23 01:45 | 32.73540 | -117.20208 | 25 ft | 14 kts | 246° |
| 2026-04-23 01:45 | 32.73507 | -117.20304 | 26 ft | 13 kts | 286° |
| 2026-04-23 01:45 | 32.73530 | -117.20407 | 21 ft | 13 kts | 283° |
| 2026-04-23 01:46 | 32.73515 | -117.20508 | 22 ft | 13 kts | 235° |
| 2026-04-23 01:46 | 32.73443 | -117.20558 | 22 ft | 12 kts | 179° |
| 2026-04-23 01:46 | 32.73358 | -117.20560 | 24 ft | 12 kts | 196° |
| 2026-04-23 01:46 | 32.73323 | -117.20640 | 23 ft | 11 kts | 240° |
| 2026-04-23 01:47 | 32.73298 | -117.20651 | 25 ft | 6 kts | 170° |
| 2026-04-23 01:47 | 32.73253 | -117.20647 | 28 ft | 2 kts | 179° |
| 2026-04-23 01:47 | 32.73245 | -117.20647 | 27 ft | 0 kts | 179° |